Time;durP1;ratioP1;P1;durP2;ratioP2;P2;SDS_P1;SDS_P2;PMS_P1;PMS_P2;Temp;Humidity;BMP_temperature;BMP_pressure;BME280_temperature;BME280_humidity;BME280_pressure;Samples;Min_cycle;Max_cycle;Signal;HPM_P1;HPM_P2
2022/01/08 00:01:58;;;;;;;8.70;7.80;;;;;;;1.21;100.00;99486.38;4992649;28;20224;-59
2022/01/08 00:04:23;;;;;;;8.77;7.83;;;;;;;1.18;100.00;99481.38;5008799;28;20231;-59
2022/01/08 00:06:49;;;;;;;8.93;8.10;;;;;;;0.99;100.00;99479.31;5011364;28;20179;-59
2022/01/08 00:09:14;;;;;;;9.97;8.97;;;;;;;0.95;100.00;99465.06;5011385;28;20543;-59
2022/01/08 00:11:42;;;;;;;9.57;8.57;;;;;;;1.11;100.00;99465.50;5000366;28;20328;-58
2022/01/08 00:14:10;;;;;;;9.20;7.87;;;;;;;1.18;100.00;99456.88;5010683;28;20179;-59
2022/01/08 00:16:37;;;;;;;9.40;8.40;;;;;;;1.27;100.00;99454.09;5000324;28;20718;-59
2022/01/08 00:19:03;;;;;;;9.63;8.63;;;;;;;1.26;100.00;99452.44;5011155;28;20551;-59
2022/01/08 00:21:28;;;;;;;10.53;9.43;;;;;;;1.39;100.00;99445.34;5000349;28;20229;-58
2022/01/08 00:23:53;;;;;;;10.70;9.60;;;;;;;1.44;100.00;99440.97;5010569;28;20264;-58
2022/01/08 00:26:19;;;;;;;11.30;9.30;;;;;;;1.42;100.00;99436.81;5011224;28;20273;-59
2022/01/08 00:28:44;;;;;;;11.33;10.17;;;;;;;1.52;100.00;99440.75;5011037;28;20237;-59
2022/01/08 00:31:10;;;;;;;11.83;10.60;;;;;;;1.43;100.00;99433.41;4971660;28;20396;-58
2022/01/08 00:33:37;;;;;;;14.67;10.43;;;;;;;1.52;100.00;99428.06;5003235;28;20801;-58
2022/01/08 00:36:04;;;;;;;12.30;9.97;;;;;;;1.64;100.00;99433.66;5010924;28;20186;-57
2022/01/08 00:38:29;;;;;;;11.53;9.77;;;;;;;1.67;100.00;99439.50;5010869;28;20226;-57
2022/01/08 00:40:54;;;;;;;13.20;9.53;;;;;;;1.77;100.00;99435.84;5000237;28;20257;-57
2022/01/08 00:43:20;;;;;;;10.57;9.57;;;;;;;1.85;100.00;99433.06;5008651;28;20637;-57
2022/01/08 00:45:45;;;;;;;11.67;9.33;;;;;;;1.93;100.00;99420.16;5020113;28;20205;-58
2022/01/08 00:48:10;;;;;;;11.43;10.23;;;;;;;1.97;100.00;99419.16;5023868;28;20176;-57
2022/01/08 00:50:36;;;;;;;12.37;8.43;;;;;;;1.78;100.00;99416.38;5024410;28;20237;-57
2022/01/08 00:53:01;;;;;;;10.47;8.40;;;;;;;1.69;100.00;99414.13;5040214;28;20627;-57
2022/01/08 00:55:26;;;;;;;11.33;8.47;;;;;;;1.64;100.00;99413.38;5010622;28;20697;-57
2022/01/08 00:57:52;;;;;;;10.43;7.97;;;;;;;1.52;100.00;99409.50;5010620;28;20687;-57
2022/01/08 01:00:17;;;;;;;11.87;7.73;;;;;;;1.38;100.00;99399.78;5002322;28;20586;-56
2022/01/08 01:02:43;;;;;;;11.70;7.67;;;;;;;1.25;100.00;99397.56;5023847;28;20168;-57
2022/01/08 01:05:09;;;;;;;11.63;7.63;;;;;;;1.38;100.00;99398.06;5010354;28;20171;-57
2022/01/08 01:07:35;;;;;;;15.07;8.67;;;;;;;1.26;100.00;99395.88;5010725;28;20594;-57
2022/01/08 01:10:01;;;;;;;27.07;15.00;;;;;;;1.17;100.00;99396.94;5010572;28;20198;-57
2022/01/08 01:12:26;;;;;;;11.20;8.10;;;;;;;1.35;100.00;99398.13;5015525;28;20281;-57
2022/01/08 01:14:51;;;;;;;10.63;9.20;;;;;;;1.24;100.00;99387.47;5008473;28;20183;-57
2022/01/08 01:17:17;;;;;;;17.83;11.47;;;;;;;1.21;100.00;99383.31;5018646;28;20241;-57
2022/01/08 01:19:43;;;;;;;16.80;10.77;;;;;;;1.34;100.00;99376.22;5029155;28;20186;-57
2022/01/08 01:22:08;;;;;;;10.77;7.80;;;;;;;1.39;100.00;99374.38;5035275;28;20657;-56
2022/01/08 01:24:36;;;;;;;11.27;7.67;;;;;;;1.43;100.00;99373.41;5030075;28;20305;-57
2022/01/08 01:48:22;;;;;;;10.17;8.10;;;;;;;0.85;100.00;99363.19;5019076;28;20542;-57
2022/01/08 01:50:48;;;;;;;9.03;7.97;;;;;;;0.75;100.00;99362.59;5017342;28;20229;-57
2022/01/08 01:53:14;;;;;;;11.43;8.03;;;;;;;0.88;100.00;99360.56;5037050;28;20181;-57
2022/01/08 01:55:41;;;;;;;9.13;7.70;;;;;;;0.77;100.00;99360.00;5010094;28;20181;-57
2022/01/08 01:58:07;;;;;;;8.13;7.33;;;;;;;0.66;100.00;99362.84;5010669;28;20696;-57
2022/01/08 02:00:33;;;;;;;9.23;8.30;;;;;;;0.70;100.00;99366.94;5003873;28;20280;-55
2022/01/08 02:03:00;;;;;;;8.63;7.67;;;;;;;0.64;100.00;99360.34;5021270;28;20229;-57
2022/01/08 02:05:26;;;;;;;8.53;7.33;;;;;;;0.66;100.00;99356.94;5010003;28;20285;-57
2022/01/08 02:07:54;;;;;;;8.87;7.97;;;;;;;0.54;100.00;99353.84;5010212;28;20167;-57
2022/01/08 02:10:20;;;;;;;9.23;8.27;;;;;;;0.56;100.00;99352.13;5002300;28;20276;-57
2022/01/08 02:12:45;;;;;;;11.00;7.53;;;;;;;0.64;100.00;99346.84;5024141;28;20245;-57
2022/01/08 02:15:10;;;;;;;8.30;7.10;;;;;;;0.67;100.00;99353.53;5013308;28;20171;-57
2022/01/08 02:17:36;;;;;;;8.47;6.70;;;;;;;0.53;100.00;99346.28;5013612;28;20203;-57
2022/01/08 02:20:01;;;;;;;8.07;7.37;;;;;;;0.53;100.00;99346.28;5013477;28;20210;-57
2022/01/08 02:22:26;;;;;;;8.10;7.30;;;;;;;0.43;100.00;99340.63;5018914;28;20341;-58
2022/01/08 02:24:51;;;;;;;8.90;7.67;;;;;;;0.37;100.00;99338.25;5013454;28;20171;-57
2022/01/08 02:27:18;;;;;;;8.50;7.53;;;;;;;0.25;100.00;99331.78;5013540;28;20821;-57
2022/01/08 02:29:43;;;;;;;9.57;7.97;;;;;;;0.21;100.00;99337.81;5013395;28;20198;-57
2022/01/08 02:32:12;;;;;;;8.93;8.00;;;;;;;0.12;100.00;99341.38;5018414;28;20228;-57
2022/01/08 02:34:40;;;;;;;10.57;8.57;;;;;;;-0.01;100.00;99339.13;5012892;28;20810;-57
2022/01/08 02:37:06;;;;;;;9.20;8.27;;;;;;;-0.01;100.00;99341.66;5013139;28;20201;-57
2022/01/08 02:39:38;;;;;;;8.87;7.97;;;;;;;-0.19;100.00;99344.63;5013167;28;20585;-57
2022/01/08 02:42:04;;;;;;;11.50;8.43;;;;;;;-0.41;100.00;99354.38;5018248;28;20399;-57
2022/01/08 02:44:29;;;;;;;9.63;8.63;;;;;;;-0.52;100.00;99360.50;5012791;28;20241;-57
2022/01/08 02:46:55;;;;;;;10.47;8.13;;;;;;;-0.60;100.00;99352.22;5017720;28;20581;-56
2022/01/08 02:49:21;;;;;;;9.90;8.00;;;;;;;-0.62;100.00;99356.50;5032746;28;20253;-57
2022/01/08 02:51:47;;;;;;;9.43;7.40;;;;;;;-0.63;100.00;99364.94;5021654;28;20229;-57
2022/01/08 02:54:13;;;;;;;8.27;7.37;;;;;;;-0.69;100.00;99360.00;5023020;28;20175;-57
2022/01/08 02:56:40;;;;;;;6.83;6.17;;;;;;;-0.77;100.00;99361.84;5007880;28;20197;-57
2022/01/08 02:59:06;;;;;;;5.83;5.23;;;;;;;-0.87;100.00;99353.63;5012697;28;20230;-57
2022/01/08 03:01:32;;;;;;;5.57;5.07;;;;;;;-0.91;100.00;99357.88;5001926;28;20226;-57
2022/01/08 03:03:57;;;;;;;5.13;4.63;;;;;;;-0.93;100.00;99354.59;5011996;28;20266;-57
2022/01/08 03:06:23;;;;;;;5.97;4.80;;;;;;;-0.87;100.00;99358.66;5012608;28;20260;-57
2022/01/08 03:08:48;;;;;;;5.93;5.33;;;;;;;-0.78;100.00;99363.56;5012847;28;20175;-57
2022/01/08 03:11:14;;;;;;;5.30;4.77;;;;;;;-0.70;100.00;99365.91;5001689;28;20654;-57
2022/01/08 03:13:39;;;;;;;6.47;5.70;;;;;;;-0.65;100.00;99356.53;5011654;28;20174;-58
2022/01/08 03:16:04;;;;;;;9.10;6.13;;;;;;;-0.66;100.00;99357.41;5012588;28;20174;-58
2022/01/08 03:18:30;;;;;;;5.90;5.27;;;;;;;-0.69;100.00;99370.94;5012336;28;20202;-55
2022/01/08 03:21:04;;;;;;;6.40;5.23;;;;;;;-0.55;100.00;99367.28;5001714;28;20479;-56
2022/01/08 03:23:42;;;;;;;6.43;5.50;;;;;;;-0.62;100.00;99365.75;5011128;28;20178;-56
2022/01/08 03:26:08;;;;;;;5.80;5.00;;;;;;;-0.59;100.00;99368.22;5012449;28;20174;-57
2022/01/08 03:28:33;;;;;;;6.50;4.97;;;;;;;-0.65;100.00;99366.66;5012314;28;20178;-57
2022/01/08 03:30:58;;;;;;;5.33;4.80;;;;;;;-0.53;100.00;99363.88;5001641;28;20229;-57
2022/01/08 03:33:24;;;;;;;5.20;3.93;;;;;;;-0.53;100.00;99373.16;5011427;28;20185;-58
2022/01/08 03:35:49;;;;;;;5.23;4.17;;;;;;;-0.39;100.00;99382.97;5011825;28;20568;-57
2022/01/08 03:38:14;;;;;;;4.50;4.10;;;;;;;-0.35;100.00;99382.03;5011970;28;20198;-57
2022/01/08 03:40:40;;;;;;;6.73;3.70;;;;;;;-0.40;100.00;99377.06;5001641;28;20657;-56
2022/01/08 03:43:05;;;;;;;4.37;3.40;;;;;;;-0.48;100.00;99378.94;5011157;28;20295;-57
2022/01/08 03:45:30;;;;;;;7.23;3.30;;;;;;;-0.56;100.00;99379.09;5011641;28;20282;-57
2022/01/08 03:50:39;;;;;;;3.67;3.33;;;;;;;-0.53;100.00;99381.56;5006496;28;20292;-57
2022/01/08 03:53:05;;;;;;;4.30;3.20;;;;;;;-0.36;100.00;99385.41;5022170;28;20261;-57
2022/01/08 03:55:30;;;;;;;3.80;3.40;;;;;;;-0.25;100.00;99391.09;5011676;28;20182;-57
2022/01/08 03:57:55;;;;;;;3.50;3.20;;;;;;;-0.18;100.00;99400.19;5011633;28;20670;-56
2022/01/08 04:00:20;;;;;;;3.07;2.77;;;;;;;-0.25;100.00;99395.31;4991121;28;20240;-58
2022/01/08 04:02:46;;;;;;;3.37;3.07;;;;;;;-0.14;100.00;99400.97;5010529;28;20190;-57
2022/01/08 04:05:11;;;;;;;2.80;2.60;;;;;;;-0.09;100.00;99405.91;5011505;28;20213;-58
2022/01/08 04:07:36;;;;;;;3.10;2.80;;;;;;;0.01;100.00;99409.09;5011603;28;20784;-58
2022/01/08 04:10:02;;;;;;;3.13;2.50;;;;;;;-0.14;100.00;99415.31;5011549;28;20301;-57
2022/01/08 04:12:36;;;;;;;2.73;2.53;;;;;;;-0.22;100.00;99418.81;5000336;28;20687;-58
2022/01/08 04:15:07;;;;;;;2.40;2.20;;;;;;;-0.11;100.00;99430.41;5010334;28;20183;-58
2022/01/08 04:17:32;;;;;;;2.50;2.30;;;;;;;-0.08;100.00;99445.50;5025972;28;20218;-57
2022/01/08 04:19:58;;;;;;;2.00;1.80;;;;;;;-0.14;100.00;99453.22;5011323;28;20552;-58
2022/01/08 04:22:25;;;;;;;1.83;1.73;;;;;;;-0.14;100.00;99458.28;5000625;28;20582;-57
2022/01/08 04:24:52;;;;;;;1.83;1.50;;;;;;;-0.09;100.00;99464.88;5011100;28;20179;-58
2022/01/08 04:27:17;;;;;;;1.90;1.53;;;;;;;-0.14;100.00;99470.94;5011262;28;20171;-57
2022/01/08 04:29:42;;;;;;;1.00;1.00;;;;;;;-0.09;100.00;99490.16;5011197;28;20197;-57
2022/01/08 04:32:08;;;;;;;1.00;1.00;;;;;;;-0.05;100.00;99490.94;4979973;28;20348;-58
2022/01/08 04:34:33;;;;;;;1.00;1.00;;;;;;;-0.09;100.00;99497.75;5010600;28;20293;-57
2022/01/08 04:36:59;;;;;;;1.40;1.10;;;;;;;0.00;100.00;99514.47;5010534;28;20174;-58
2022/01/08 04:39:24;;;;;;;0.70;0.70;;;;;;;-0.03;100.00;99509.47;5010985;28;20175;-58
2022/01/08 04:41:49;;;;;;;0.73;0.73;;;;;;;-0.13;100.00;99520.63;5014797;28;20229;-57
2022/01/08 04:44:15;;;;;;;0.70;0.70;;;;;;;-0.16;100.00;99521.53;5012348;28;20185;-57
2022/01/08 04:46:41;;;;;;;0.70;0.70;;;;;;;-0.08;100.00;99527.25;5013704;28;20174;-57
2022/01/08 04:49:06;;;;;;;0.77;0.77;;;;;;;-0.03;100.00;99534.75;5017667;28;20582;-56
2022/01/08 04:51:32;;;;;;;0.63;0.63;;;;;;;-0.05;100.00;99536.47;5020796;28;20229;-57
2022/01/08 04:53:57;;;;;;;1.10;1.00;;;;;;;-0.13;100.00;99535.78;5025380;28;20186;-57
2022/01/08 04:56:23;;;;;;;0.90;0.80;;;;;;;0.09;100.00;99546.31;5010906;28;20216;-57
2022/01/08 04:58:48;;;;;;;0.80;0.80;;;;;;;0.24;100.00;99547.69;5010654;28;20194;-57
2022/01/08 05:01:15;;;;;;;1.73;0.60;;;;;;;0.38;100.00;99549.94;5009696;28;20314;-57
2022/01/08 05:03:40;;;;;;;0.80;0.80;;;;;;;0.32;100.00;99554.25;5016407;28;20221;-56
2022/01/08 05:06:06;;;;;;;0.80;0.80;;;;;;;0.32;100.00;99551.72;5010816;28;20210;-57
2022/01/08 05:08:32;;;;;;;1.43;0.80;;;;;;;0.38;100.00;99555.81;4977266;28;20646;-57
2022/01/08 05:10:57;;;;;;;0.70;0.70;;;;;;;0.27;100.00;99562.78;5002892;28;20232;-56
2022/01/08 05:13:22;;;;;;;2.60;1.00;;;;;;;0.10;100.00;99569.03;5018585;28;20748;-57
2022/01/08 05:15:48;;;;;;;1.07;0.93;;;;;;;0.24;100.00;99568.75;5010474;28;20178;-57
2022/01/08 05:18:13;;;;;;;1.57;1.10;;;;;;;0.34;100.00;99568.56;5010334;28;20210;-57
2022/01/08 05:20:41;;;;;;;0.83;0.83;;;;;;;0.46;100.00;99574.19;5012464;28;20284;-57
2022/01/08 05:23:08;;;;;;;1.23;1.10;;;;;;;0.36;100.00;99579.47;5032520;28;20265;-56
2022/01/08 05:25:34;;;;;;;1.30;1.20;;;;;;;0.15;100.00;99584.94;5030100;28;20178;-57
2022/01/08 05:28:00;;;;;;;1.83;1.00;;;;;;;0.09;100.00;99594.38;5030270;28;20269;-57
2022/01/08 05:30:26;;;;;;;1.53;1.13;;;;;;;0.27;100.00;99593.16;5004712;28;20245;-56
2022/01/08 05:32:52;;;;;;;1.70;1.00;;;;;;;-0.08;100.00;99598.03;5002883;28;20297;-56
2022/01/08 05:35:18;;;;;;;2.03;1.50;;;;;;;-0.11;100.00;99602.31;5009458;28;20249;-56
2022/01/08 05:37:44;;;;;;;2.87;2.00;;;;;;;-0.18;100.00;99604.94;5002203;28;20593;-57
2022/01/08 05:40:10;;;;;;;2.70;2.50;;;;;;;-0.05;100.00;99613.16;5001207;28;20195;-57
2022/01/08 05:42:36;;;;;;;4.67;3.47;;;;;;;0.02;100.00;99623.16;5024533;28;20358;-56
2022/01/08 05:45:02;;;;;;;4.60;3.93;;;;;;;0.23;100.00;99614.31;5010172;28;20175;-56
2022/01/08 05:47:30;;;;;;;7.17;4.37;;;;;;;0.20;100.00;99620.28;5021827;28;20182;-57
2022/01/08 05:49:55;;;;;;;5.13;4.63;;;;;;;0.17;100.00;99620.31;5033898;28;20190;-57
2022/01/08 05:52:21;;;;;;;5.93;4.10;;;;;;;0.32;100.00;99627.63;5014399;28;20226;-57
2022/01/08 05:54:46;;;;;;;5.77;5.17;;;;;;;0.42;100.00;99629.97;5027134;28;20182;-57
2022/01/08 05:57:11;;;;;;;6.90;5.40;;;;;;;0.39;100.00;99637.63;5028434;28;20197;-57
2022/01/08 05:59:37;;;;;;;6.07;5.47;;;;;;;0.38;100.00;99638.50;5033741;28;20193;-57
2022/01/08 06:02:03;;;;;;;10.60;6.83;;;;;;;0.46;100.00;99639.19;5038730;28;20316;-57
2022/01/08 06:04:28;;;;;;;9.03;5.90;;;;;;;0.48;100.00;99635.75;5033628;28;20182;-57
2022/01/08 06:06:54;;;;;;;6.33;5.63;;;;;;;0.35;100.00;99643.59;5033589;28;20263;-57
2022/01/08 06:09:19;;;;;;;10.50;6.57;;;;;;;0.29;100.00;99647.09;5033447;28;20191;-57
2022/01/08 06:11:44;;;;;;;8.03;7.23;;;;;;;0.18;100.00;99652.34;5036219;28;20596;-57
2022/01/08 06:14:09;;;;;;;7.83;7.03;;;;;;;0.15;100.00;99654.97;5035368;28;20253;-57
2022/01/08 06:16:37;;;;;;;10.13;7.10;;;;;;;-0.10;100.00;99660.47;5032056;28;20185;-57
2022/01/08 06:19:07;;;;;;;10.33;7.03;;;;;;;-0.16;100.00;99668.16;5033374;28;20594;-58
2022/01/08 06:21:32;;;;;;;7.30;6.60;;;;;;;-0.66;100.00;99671.47;5034722;28;20331;-57
2022/01/08 06:23:58;;;;;;;7.47;6.77;;;;;;;-0.57;100.00;99684.81;5024860;28;20186;-57
2022/01/08 06:26:24;;;;;;;10.10;6.80;;;;;;;-0.61;100.00;99690.78;5022486;28;20178;-57
2022/01/08 06:28:51;;;;;;;8.53;7.10;;;;;;;-0.61;100.00;99695.84;5032944;28;20174;-57
2022/01/08 06:31:17;;;;;;;11.67;6.77;;;;;;;-0.74;100.00;99702.75;5032586;28;20233;-57
2022/01/08 06:33:42;;;;;;;10.47;6.47;;;;;;;-0.87;100.00;99702.94;5038670;28;20178;-57
2022/01/08 06:36:08;;;;;;;10.10;7.57;;;;;;;-0.99;100.00;99713.22;5032876;28;20216;-57
2022/01/08 06:38:33;;;;;;;8.60;7.73;;;;;;;-1.07;100.00;99717.50;5032808;28;20651;-57
2022/01/08 06:40:58;;;;;;;8.77;7.87;;;;;;;-0.98;100.00;99723.28;5029633;28;20235;-57
2022/01/08 06:43:24;;;;;;;9.60;8.13;;;;;;;-0.94;100.00;99725.75;5040791;28;20719;-57
2022/01/08 06:45:49;;;;;;;11.63;8.40;;;;;;;-0.71;100.00;99733.88;5031311;28;20170;-57
2022/01/08 06:48:14;;;;;;;13.13;8.37;;;;;;;-0.59;100.00;99737.91;5032799;28;20174;-57
2022/01/08 06:50:40;;;;;;;13.73;9.20;;;;;;;-0.50;100.00;99750.41;5022325;28;20269;-58
2022/01/08 06:53:05;;;;;;;16.60;10.00;;;;;;;-0.53;100.00;99755.50;5031808;28;20177;-55
2022/01/08 06:55:30;;;;;;;13.30;10.73;;;;;;;-0.57;100.00;99748.81;5032383;28;20174;-56
2022/01/08 06:57:56;;;;;;;13.10;10.03;;;;;;;-0.60;100.00;99756.44;5032201;28;20217;-56
2022/01/08 07:00:22;;;;;;;13.63;10.23;;;;;;;-0.53;100.00;99759.72;5022290;28;20644;-55
2022/01/08 07:02:47;;;;;;;16.63;10.47;;;;;;;-0.46;100.00;99765.50;5017467;28;20185;-56
2022/01/08 07:05:12;;;;;;;16.87;10.00;;;;;;;-0.48;100.00;99763.00;5032362;28;20181;-58
2022/01/08 07:07:38;;;;;;;14.37;10.57;;;;;;;-0.42;100.00;99767.13;5032355;28;20544;-56
2022/01/08 07:10:03;;;;;;;14.03;10.10;;;;;;;-0.31;100.00;99767.81;5022278;28;20240;-56
2022/01/08 07:12:29;;;;;;;15.57;11.63;;;;;;;-0.20;100.00;99776.06;5030916;28;20214;-56
2022/01/08 07:14:55;;;;;;;15.27;10.93;;;;;;;-0.13;100.00;99775.97;5032347;28;20184;-56
2022/01/08 07:17:20;;;;;;;15.53;12.13;;;;;;;-0.21;100.00;99774.41;5032561;28;20263;-56
2022/01/08 07:19:45;;;;;;;16.23;10.50;;;;;;;-0.22;100.00;99775.25;5032482;28;20769;-56
2022/01/08 07:22:11;;;;;;;17.63;11.60;;;;;;;-0.18;100.00;99786.16;5008644;28;20219;-57
2022/01/08 07:24:36;;;;;;;17.60;11.90;;;;;;;-0.18;100.00;99786.16;5010538;28;20218;-57
2022/01/08 07:27:02;;;;;;;13.97;10.47;;;;;;;-0.34;100.00;99783.03;5011860;28;20238;-57
2022/01/08 07:29:27;;;;;;;16.13;10.23;;;;;;;-0.20;100.00;99791.25;5026347;28;20655;-58
2022/01/08 07:31:55;;;;;;;19.27;10.57;;;;;;;-0.27;100.00;99798.91;5018261;28;20209;-56
2022/01/08 07:34:21;;;;;;;16.57;10.40;;;;;;;-0.25;100.00;99794.69;5017834;28;20188;-56
2022/01/08 07:36:46;;;;;;;16.83;10.83;;;;;;;-0.23;100.00;99801.38;5008922;28;20191;-57
2022/01/08 07:39:11;;;;;;;14.40;10.37;;;;;;;-0.14;100.00;99808.00;5011325;28;20238;-57
2022/01/08 07:41:36;;;;;;;15.33;9.47;;;;;;;-0.23;100.00;99813.22;5009327;28;20260;-57
2022/01/08 07:44:02;;;;;;;12.27;7.93;;;;;;;-0.36;100.00;99820.13;5012316;28;20185;-57
2022/01/08 07:46:27;;;;;;;11.33;7.10;;;;;;;-0.14;100.00;99828.22;5014907;28;20179;-57
2022/01/08 07:48:52;;;;;;;14.37;7.87;;;;;;;-0.12;100.00;99824.00;5011207;28;20233;-57
2022/01/08 07:51:18;;;;;;;11.23;7.13;;;;;;;-0.04;100.00;99831.44;5003744;28;20230;-57
2022/01/08 07:53:43;;;;;;;9.33;6.00;;;;;;;-0.13;100.00;99841.72;5015383;28;20528;-56
2022/01/08 07:56:08;;;;;;;12.50;6.80;;;;;;;-0.04;100.00;99841.56;5011123;28;20193;-56
2022/01/08 07:58:34;;;;;;;9.93;5.00;;;;;;;0.00;100.00;99845.75;5011208;28;20574;-57
2022/01/08 08:00:59;;;;;;;15.97;6.03;;;;;;;-0.11;100.00;99839.97;4993217;28;20793;-57
2022/01/08 08:03:25;;;;;;;10.90;5.97;;;;;;;-0.03;100.00;99853.34;5014976;28;20187;-56
2022/01/08 08:05:50;;;;;;;10.30;5.90;;;;;;;0.13;100.00;99843.84;5010923;28;20217;-58
2022/01/08 08:08:17;;;;;;;9.27;5.10;;;;;;;0.27;100.00;99852.06;5010997;28;20775;-56
2022/01/08 08:10:43;;;;;;;7.20;4.67;;;;;;;0.33;100.00;99856.16;5003464;28;20316;-57
2022/01/08 08:13:09;;;;;;;8.53;4.63;;;;;;;0.48;100.00;99850.00;5015080;28;20179;-56
2022/01/08 08:15:34;;;;;;;9.17;4.67;;;;;;;0.29;100.00;99835.13;5004389;28;20218;-58
2022/01/08 08:17:59;;;;;;;14.80;4.87;;;;;;;0.34;100.00;99849.44;5019941;28;20210;-57
2022/01/08 08:20:25;;;;;;;9.33;4.63;;;;;;;0.30;100.00;99856.22;5003206;28;20234;-57
2022/01/08 08:22:50;;;;;;;12.37;5.57;;;;;;;0.40;100.00;99855.22;5016902;28;20188;-57
2022/01/08 08:25:16;;;;;;;10.70;4.90;;;;;;;0.34;100.00;99855.31;5009448;28;20192;-57
2022/01/08 08:27:42;;;;;;;8.47;4.30;;;;;;;0.30;100.00;99858.75;5010599;28;20229;-57
2022/01/08 08:30:08;;;;;;;7.63;4.87;;;;;;;0.33;100.00;99866.28;4983006;28;20199;-57
2022/01/08 08:32:33;;;;;;;9.13;4.57;;;;;;;0.38;100.00;99864.50;5014688;28;20659;-57
2022/01/08 08:34:58;;;;;;;6.63;4.30;;;;;;;0.29;100.00;99872.28;5010179;28;20273;-55
2022/01/08 08:37:24;;;;;;;7.47;4.10;;;;;;;0.44;100.00;99873.72;5010250;28;20281;-56
2022/01/08 08:39:50;;;;;;;11.73;4.23;;;;;;;0.60;100.00;99882.72;5008577;28;20612;-56
2022/01/08 08:42:16;;;;;;;7.97;4.63;;;;;;;0.68;100.00;99886.81;5015457;28;20305;-56
2022/01/08 08:44:42;;;;;;;13.50;5.17;;;;;;;0.82;100.00;99896.69;5009881;28;20189;-56
2022/01/08 08:47:08;;;;;;;11.60;4.57;;;;;;;1.13;100.00;99892.75;5003942;28;20183;-56
2022/01/08 08:49:34;;;;;;;12.33;5.00;;;;;;;1.28;100.00;99889.06;5011706;28;20189;-56
2022/01/08 08:51:59;;;;;;;6.27;4.63;;;;;;;1.34;100.00;99889.81;5007149;28;20221;-56
2022/01/08 08:54:25;;;;;;;9.60;4.17;;;;;;;1.48;100.00;99884.47;5010047;28;20174;-56
2022/01/08 08:56:50;;;;;;;8.73;4.37;;;;;;;1.46;100.00;99884.50;5006917;28;20245;-56
2022/01/08 08:59:18;;;;;;;6.97;4.13;;;;;;;1.23;100.00;99884.97;5014468;28;20234;-56
2022/01/08 09:01:43;;;;;;;7.27;3.63;;;;;;;1.07;100.00;99877.66;5005371;28;20282;-56
2022/01/08 09:04:09;;;;;;;6.30;4.23;;;;;;;1.26;100.00;99885.72;5012054;28;20178;-56
2022/01/08 09:06:34;;;;;;;8.30;4.60;;;;;;;1.38;100.00;99884.66;5009631;28;20639;-56
2022/01/08 09:09:00;;;;;;;9.97;4.47;;;;;;;2.06;100.00;99887.44;5007336;28;20198;-56
2022/01/08 09:11:26;;;;;;;8.63;4.60;;;;;;;2.96;100.00;99880.19;5006326;28;20284;-56
2022/01/08 09:13:51;;;;;;;11.47;4.73;;;;;;;3.98;98.12;99873.03;5003756;28;20202;-56
2022/01/08 09:16:17;;;;;;;11.07;4.47;;;;;;;4.36;87.18;99880.31;5002231;28;20293;-57
2022/01/08 09:18:43;;;;;;;5.73;3.57;;;;;;;5.55;82.41;99876.22;5010494;28;20282;-57
2022/01/08 09:21:08;;;;;;;4.80;3.10;;;;;;;6.30;76.67;99874.19;5009148;28;20239;-57
2022/01/08 09:23:34;;;;;;;6.77;3.57;;;;;;;6.50;72.77;99868.31;5021184;28;20236;-57
2022/01/08 09:26:01;;;;;;;4.50;2.60;;;;;;;6.73;70.82;99872.44;5014432;28;20185;-57
2022/01/08 09:28:27;;;;;;;8.90;3.07;;;;;;;6.58;69.32;99875.63;5014404;28;20169;-57
2022/01/08 09:30:54;;;;;;;4.00;2.40;;;;;;;6.93;68.52;99879.28;5010962;28;20339;-57
2022/01/08 09:33:20;;;;;;;7.67;2.83;;;;;;;7.20;68.39;99878.94;5022989;28;20191;-57
2022/01/08 09:35:45;;;;;;;7.37;2.80;;;;;;;6.40;68.67;99875.50;5013900;28;20699;-56
2022/01/08 09:38:11;;;;;;;6.93;3.53;;;;;;;5.21;71.65;99877.47;5013894;28;20198;-56
2022/01/08 09:40:36;;;;;;;4.70;3.10;;;;;;;4.30;77.45;99880.50;5008330;28;20238;-56
2022/01/08 09:43:02;;;;;;;8.50;3.50;;;;;;;3.94;80.25;99886.69;5024789;28;20181;-57
2022/01/08 09:45:28;;;;;;;7.03;3.13;;;;;;;2.96;84.95;99886.09;5014065;28;20174;-56
2022/01/08 09:47:53;;;;;;;9.93;3.27;;;;;;;3.12;88.88;99890.78;5026845;28;20179;-57
2022/01/08 09:50:19;;;;;;;5.67;3.07;;;;;;;3.00;89.61;99891.91;5024014;28;20598;-57
2022/01/08 09:52:44;;;;;;;6.67;2.93;;;;;;;2.64;90.16;99897.06;5032598;28;20265;-57
2022/01/08 09:55:10;;;;;;;5.53;3.50;;;;;;;2.74;91.40;99893.44;5033360;28;20662;-57
2022/01/08 09:57:35;;;;;;;7.27;3.20;;;;;;;2.93;91.90;99888.72;5033822;28;20209;-56
2022/01/08 10:00:01;;;;;;;6.80;3.10;;;;;;;4.12;87.45;99887.88;5034088;28;20591;-60
2022/01/08 10:02:26;;;;;;;5.80;2.90;;;;;;;5.70;77.54;99881.63;5022642;28;20291;-60
2022/01/08 10:04:52;;;;;;;3.87;2.73;;;;;;;6.57;72.28;99882.50;5033741;28;20186;-60
2022/01/08 10:07:18;;;;;;;4.67;3.00;;;;;;;8.57;65.87;99881.19;5028495;28;20202;-62
2022/01/08 10:09:57;;;;;;;7.60;3.20;;;;;;;9.25;58.24;99887.97;5025781;28;20225;-62
2022/01/08 10:12:35;;;;;;;4.70;3.00;;;;;;;9.39;57.09;99892.41;5034434;28;20584;-63
2022/01/08 10:17:45;;;;;;;5.10;3.53;;;;;;;6.78;65.32;99900.38;5025809;28;20271;-58
2022/01/08 10:20:10;;;;;;;8.27;3.57;;;;;;;6.12;69.89;99897.03;5018872;28;20216;-58
2022/01/08 10:22:36;;;;;;;7.53;4.40;;;;;;;5.68;73.28;99897.00;5037613;28;20174;-58
2022/01/08 10:25:11;;;;;;;9.03;5.97;;;;;;;4.51;76.76;99900.22;5023879;28;20182;-59
2022/01/08 10:27:36;;;;;;;8.97;6.57;;;;;;;4.50;80.16;99890.06;5025315;28;20276;-58
2022/01/08 10:30:03;;;;;;;12.03;6.63;;;;;;;4.19;82.31;99889.34;5031323;28;20194;-57
2022/01/08 10:32:28;;;;;;;7.27;4.63;;;;;;;4.06;83.18;99889.75;5018935;28;20260;-58
2022/01/08 10:34:54;;;;;;;8.60;4.63;;;;;;;3.84;84.60;99887.88;5028142;28;20220;-58
2022/01/08 10:37:19;;;;;;;5.73;3.80;;;;;;;3.48;86.19;99885.53;5031786;28;20197;-58
2022/01/08 10:39:53;;;;;;;7.67;4.33;;;;;;;3.03;89.49;99882.50;5029809;28;20711;-58
2022/01/08 10:42:19;;;;;;;7.17;4.03;;;;;;;2.83;91.64;99889.81;5037095;28;20219;-59
2022/01/08 10:44:47;;;;;;;7.57;3.97;;;;;;;2.58;92.63;99890.47;5030597;28;20182;-58
2022/01/08 10:47:20;;;;;;;8.17;4.87;;;;;;;2.69;93.50;99880.00;5031901;28;20201;-59
2022/01/08 10:50:06;;;;;;;8.73;4.50;;;;;;;2.26;95.31;99880.19;5031126;28;20289;-58
2022/01/08 10:52:48;;;;;;;6.67;4.07;;;;;;;2.39;96.30;99875.69;5018209;28;20213;-57
2022/01/08 10:55:13;;;;;;;10.67;4.03;;;;;;;2.28;95.35;99877.63;5029835;28;20649;-59
2022/01/08 10:57:41;;;;;;;8.60;4.60;;;;;;;2.28;96.40;99880.16;5029104;28;20201;-56
2022/01/08 11:00:09;;;;;;;11.43;4.40;;;;;;;2.61;96.67;99879.41;5022222;28;20204;-56
2022/01/08 11:02:35;;;;;;;5.67;3.83;;;;;;;2.82;95.83;99870.38;5037443;28;20276;-56
2022/01/08 11:05:04;;;;;;;8.10;3.60;;;;;;;2.69;94.81;99863.09;5028593;28;20645;-56
2022/01/08 11:07:31;;;;;;;12.30;4.43;;;;;;;2.61;94.87;99859.06;5025770;28;20185;-55
2022/01/08 11:10:04;;;;;;;10.00;4.30;;;;;;;2.85;95.32;99850.81;5031198;28;20200;-55
2022/01/08 11:12:37;;;;;;;7.80;4.00;;;;;;;3.00;93.92;99859.72;5019517;28;20214;-60
2022/01/08 11:17:43;;;;;;;4.80;3.73;;;;;;;2.84;93.21;99848.28;5008144;28;20553;-58
2022/01/08 11:20:12;;;;;;;9.40;4.97;;;;;;;3.12;93.15;99838.22;5002108;28;20240;-58
2022/01/08 11:22:44;;;;;;;6.90;4.03;;;;;;;3.14;92.22;99844.09;5007418;28;20896;-58
2022/01/08 11:25:23;;;;;;;6.83;4.00;;;;;;;2.91;91.44;99839.63;5011979;28;20182;-57
2022/01/08 11:28:03;;;;;;;8.60;4.43;;;;;;;2.98;93.37;99830.97;5012460;28;20587;-58
2022/01/08 11:30:31;;;;;;;6.93;3.93;;;;;;;3.10;92.33;99818.81;5004809;28;20327;-58
2022/01/08 11:33:02;;;;;;;5.90;4.20;;;;;;;3.39;92.12;99812.88;5006927;28;20186;-58
2022/01/08 11:35:31;;;;;;;6.13;4.13;;;;;;;3.14;91.68;99805.13;4992029;28;20215;-59
2022/01/08 11:37:56;;;;;;;7.10;3.83;;;;;;;3.26;90.90;99804.78;4992683;28;20667;-57
2022/01/08 11:40:26;;;;;;;7.13;4.10;;;;;;;3.01;91.80;99800.38;4985084;28;20301;-58
2022/01/08 11:42:51;;;;;;;7.23;3.80;;;;;;;2.90;92.25;99789.69;5004464;28;20198;-57
2022/01/08 11:45:20;;;;;;;7.70;3.90;;;;;;;3.03;92.60;99791.03;4991706;28;20190;-58
2022/01/08 11:47:49;;;;;;;9.10;4.10;;;;;;;3.12;92.51;99787.38;5015678;28;20250;-58
2022/01/08 11:50:22;;;;;;;7.07;3.60;;;;;;;3.10;91.91;99780.69;5021582;28;20247;-59
2022/01/08 11:53:19;;;;;;;7.20;3.57;;;;;;;3.05;92.41;99784.19;5030604;28;20177;-59
2022/01/08 11:55:54;;;;;;;7.30;4.17;;;;;;;3.27;92.00;99780.19;5031451;28;20188;-59